Time;durP1;ratioP1;P1;durP2;ratioP2;P2;SDS_P1;SDS_P2;PMS_P1;PMS_P2;Temp;Humidity;BMP_temperature;BMP_pressure;BME280_temperature;BME280_humidity;BME280_pressure;Samples;Min_cycle;Max_cycle;Signal;HPM_P1;HPM_P2
2023/07/18 00:01:07;;;;;;;0.03;0.03;;;;;;;12.75;100.00;101367.72;5052840;28;20203;-53
2023/07/18 00:03:33;;;;;;;0.43;0.03;;;;;;;12.79;100.00;101368.16;5045160;28;20122;-53
2023/07/18 00:05:58;;;;;;;1.20;0.00;;;;;;;12.75;100.00;101372.19;5057834;28;20672;-51
2023/07/18 00:08:23;;;;;;;1.17;0.20;;;;;;;12.84;100.00;101366.59;5059146;28;20112;-50
2023/07/18 00:10:49;;;;;;;1.17;0.10;;;;;;;12.90;100.00;101364.22;5038685;28;20052;-51
2023/07/18 00:13:14;;;;;;;0.47;0.10;;;;;;;12.93;100.00;101369.97;5048636;28;20048;-51
2023/07/18 00:15:40;;;;;;;0.43;0.10;;;;;;;13.04;100.00;101371.38;5042903;28;20036;-54
2023/07/18 00:18:06;;;;;;;1.65;0.00;;;;;;;13.05;100.00;101365.03;5055671;28;20427;-51
2023/07/18 00:20:32;;;;;;;0.63;0.10;;;;;;;13.04;100.00;101369.53;5047263;28;20024;-52
2023/07/18 00:22:57;;;;;;;0.00;0.00;;;;;;;12.99;100.00;101369.25;5051764;28;20544;-53
2023/07/18 00:25:23;;;;;;;2.58;0.08;;;;;;;12.86;100.00;101364.59;5058192;28;20455;-49
2023/07/18 00:27:51;;;;;;;1.00;0.10;;;;;;;12.82;100.00;101368.63;5050433;28;20025;-51
2023/07/18 00:30:17;;;;;;;4.90;0.38;;;;;;;12.81;100.00;101360.84;5043788;28;20445;-50
2023/07/18 00:32:44;;;;;;;0.40;0.15;;;;;;;12.81;100.00;101364.31;5050591;28;20048;-48
2023/07/18 00:35:11;;;;;;;0.25;0.00;;;;;;;12.85;100.00;101362.91;5054154;28;20128;-50
2023/07/18 00:37:38;;;;;;;1.60;0.05;;;;;;;12.82;100.00;101359.81;5060830;28;20060;-49
2023/07/18 00:40:10;;;;;;;0.08;0.00;;;;;;;12.78;100.00;101358.53;5052515;28;20428;-51
2023/07/18 00:42:35;;;;;;;1.35;0.00;;;;;;;12.65;100.00;101365.31;5038706;28;20096;-52
2023/07/18 00:45:00;;;;;;;0.75;0.00;;;;;;;12.66;100.00;101366.97;5039535;28;20086;-50
2023/07/18 00:47:26;;;;;;;1.85;0.10;;;;;;;12.62;100.00;101367.50;5039310;28;20050;-48
2023/07/18 00:49:52;;;;;;;0.82;0.00;;;;;;;12.52;100.00;101361.63;5045718;28;20032;-53
2023/07/18 00:52:18;;;;;;;0.75;0.00;;;;;;;12.44;100.00;101357.22;5046345;28;20036;-53
2023/07/18 00:54:44;;;;;;;1.58;0.57;;;;;;;12.42;100.00;101367.25;5039432;28;20032;-50
2023/07/18 00:57:11;;;;;;;1.85;0.00;;;;;;;12.39;100.00;101373.75;5038435;28;20028;-51
2023/07/18 00:59:37;;;;;;;1.35;0.00;;;;;;;12.43;100.00;101376.84;5042774;28;20029;-52
2023/07/18 01:02:05;;;;;;;0.47;0.00;;;;;;;12.47;100.00;101374.66;5042375;28;20049;-49
2023/07/18 01:04:31;;;;;;;0.10;0.00;;;;;;;12.46;100.00;101368.50;5050192;28;20580;-48
2023/07/18 01:06:57;;;;;;;1.02;0.03;;;;;;;12.52;100.00;101366.94;5046484;28;20033;-50
2023/07/18 01:09:22;;;;;;;0.25;0.03;;;;;;;12.51;100.00;101360.00;5035462;28;20138;-53
2023/07/18 01:11:47;;;;;;;0.15;0.10;;;;;;;12.46;100.00;101357.88;5046061;28;20522;-52
2023/07/18 01:14:13;;;;;;;0.05;0.05;;;;;;;12.44;100.00;101360.72;5043478;28;20039;-50
2023/07/18 01:16:38;;;;;;;0.85;0.03;;;;;;;12.50;100.00;101361.00;5027569;28;20529;-51
2023/07/18 01:19:04;;;;;;;1.85;0.00;;;;;;;12.59;100.00;101359.91;5036089;28;20060;-55
2023/07/18 01:21:29;;;;;;;1.90;0.05;;;;;;;12.66;100.00;101344.88;5053303;28;20125;-48
2023/07/18 01:23:55;;;;;;;0.93;0.00;;;;;;;12.70;100.00;101343.50;5055494;28;20108;-48
2023/07/18 01:26:20;;;;;;;2.70;0.00;;;;;;;12.66;100.00;101348.34;5073193;28;20421;-53
2023/07/18 01:28:45;;;;;;;0.30;0.30;;;;;;;12.61;100.00;101344.59;5050440;28;20464;-50
2023/07/18 01:31:11;;;;;;;1.73;0.00;;;;;;;12.56;100.00;101352.28;5046620;28;20067;-48
2023/07/18 01:33:37;;;;;;;0.50;0.00;;;;;;;12.57;100.00;101343.28;5059337;28;20025;-48
2023/07/18 01:36:02;;;;;;;2.53;0.55;;;;;;;12.61;100.00;101348.06;5066329;28;20032;-53
2023/07/18 01:38:30;;;;;;;3.00;0.43;;;;;;;12.62;100.00;101341.75;5059477;28;20028;-51
2023/07/18 01:40:57;;;;;;;1.05;0.00;;;;;;;12.58;100.00;101336.97;5061367;28;20508;-55
2023/07/18 01:43:23;;;;;;;0.80;0.13;;;;;;;12.54;100.00;101335.69;5050940;28;20448;-52
2023/07/18 01:45:48;;;;;;;1.10;0.22;;;;;;;12.56;100.00;101336.31;5044083;28;20021;-51
2023/07/18 01:48:14;;;;;;;0.35;0.32;;;;;;;12.54;100.00;101339.16;5053608;28;20055;-51
2023/07/18 01:50:40;;;;;;;1.02;0.15;;;;;;;12.55;100.00;101332.03;5056569;28;20038;-51
2023/07/18 01:53:06;;;;;;;0.00;0.00;;;;;;;12.59;100.00;101335.94;5045949;28;20029;-51
2023/07/18 01:55:31;;;;;;;0.98;0.00;;;;;;;12.49;100.00;101330.06;5046656;28;20047;-52
2023/07/18 01:57:56;;;;;;;3.92;0.15;;;;;;;12.42;100.00;101325.50;5043196;28;20029;-50
2023/07/18 02:00:22;;;;;;;1.27;0.00;;;;;;;12.34;100.00;101322.06;5047010;28;20116;-50
2023/07/18 02:02:50;;;;;;;0.30;0.00;;;;;;;12.32;100.00;101316.16;5050485;28;20051;-52
2023/07/18 02:05:28;;;;;;;2.47;0.68;;;;;;;12.30;100.00;101320.81;5042525;28;20048;-52
2023/07/18 02:07:54;;;;;;;0.30;0.20;;;;;;;12.31;100.00;101322.44;5051915;28;20051;-51
2023/07/18 02:10:21;;;;;;;0.00;0.00;;;;;;;12.28;100.00;101322.81;5051910;28;20410;-53
2023/07/18 02:12:47;;;;;;;0.88;0.00;;;;;;;12.32;100.00;101318.81;5046142;28;20070;-50
2023/07/18 02:15:15;;;;;;;0.22;0.00;;;;;;;12.42;100.00;101317.53;5050505;28;20042;-49
2023/07/18 02:17:42;;;;;;;2.05;0.17;;;;;;;12.51;100.00;101317.44;5049929;28;20033;-53
2023/07/18 02:20:09;;;;;;;1.40;0.00;;;;;;;12.53;100.00;101312.75;5048391;28;20115;-48
2023/07/18 02:22:35;;;;;;;0.22;0.10;;;;;;;12.52;100.00;101311.94;5046685;28;20048;-47
2023/07/18 02:25:02;;;;;;;0.00;0.00;;;;;;;12.54;100.00;101306.41;5042604;28;20041;-48
2023/07/18 02:27:28;;;;;;;0.20;0.00;;;;;;;12.52;100.00;101303.97;5045923;28;20367;-52
2023/07/18 02:29:53;;;;;;;0.73;0.00;;;;;;;12.54;100.00;101306.41;5053368;28;20083;-51
2023/07/18 02:32:18;;;;;;;1.83;0.57;;;;;;;12.53;100.00;101304.78;5051524;28;20080;-52
2023/07/18 02:34:45;;;;;;;0.57;0.20;;;;;;;12.57;100.00;101301.56;5051241;28;20056;-54
2023/07/18 02:37:11;;;;;;;0.55;0.00;;;;;;;12.60;100.00;101305.69;5052372;28;20083;-47
2023/07/18 02:39:38;;;;;;;0.43;0.10;;;;;;;12.58;100.00;101303.22;5052100;28;20071;-52
2023/07/18 02:42:05;;;;;;;2.03;0.10;;;;;;;12.51;100.00;101310.28;5044252;28;20041;-54
2023/07/18 02:44:30;;;;;;;0.20;0.20;;;;;;;12.53;100.00;101300.28;5045463;28;20028;-51
2023/07/18 02:46:55;;;;;;;1.98;0.10;;;;;;;12.54;100.00;101295.78;5059209;28;20393;-55
2023/07/18 02:49:20;;;;;;;0.75;0.00;;;;;;;12.51;100.00;101296.97;5049638;28;20036;-50
2023/07/18 02:51:46;;;;;;;0.20;0.20;;;;;;;12.40;100.00;101298.25;5048147;28;20445;-51
2023/07/18 02:54:11;;;;;;;0.90;0.10;;;;;;;12.35;100.00;101294.50;5048330;28;20043;-51
2023/07/18 02:56:37;;;;;;;0.75;0.08;;;;;;;12.31;100.00;101294.03;5044810;28;20040;-51
2023/07/18 02:59:02;;;;;;;6.45;0.10;;;;;;;12.31;100.00;101295.84;5049874;28;20481;-51
2023/07/18 03:01:28;;;;;;;0.32;0.00;;;;;;;12.25;100.00;101294.75;5045925;28;20051;-50
2023/07/18 03:03:54;;;;;;;1.35;0.10;;;;;;;12.13;100.00;101297.06;5051333;28;20025;-52
2023/07/18 03:06:19;;;;;;;2.00;0.40;;;;;;;12.08;100.00;101296.78;5037198;28;20616;-55
2023/07/18 03:08:44;;;;;;;1.00;0.10;;;;;;;11.98;100.00;101299.69;5044974;28;20569;-53
2023/07/18 03:11:10;;;;;;;0.20;0.17;;;;;;;12.02;100.00;101294.00;5042696;28;20025;-52
2023/07/18 03:13:36;;;;;;;0.38;0.00;;;;;;;12.03;100.00;101299.16;5044798;28;20398;-51
2023/07/18 03:16:04;;;;;;;0.17;0.10;;;;;;;12.05;100.00;101290.97;5046654;28;20047;-48
2023/07/18 03:18:29;;;;;;;0.60;0.30;;;;;;;12.08;100.00;101287.94;5060360;28;20093;-50
2023/07/18 03:20:55;;;;;;;0.10;0.00;;;;;;;12.05;100.00;101280.34;5054715;28;20037;-50
2023/07/18 03:23:21;;;;;;;0.52;0.13;;;;;;;12.00;100.00;101278.22;5058090;28;20036;-49
2023/07/18 03:25:47;;;;;;;2.70;0.20;;;;;;;11.89;100.00;101282.16;5054215;28;20032;-50
2023/07/18 03:28:12;;;;;;;0.73;0.00;;;;;;;11.80;100.00;101285.88;5052654;28;20070;-50
2023/07/18 03:30:40;;;;;;;0.32;0.00;;;;;;;11.76;100.00;101281.91;5052677;28;20371;-50
2023/07/18 03:33:06;;;;;;;1.00;0.15;;;;;;;11.68;100.00;101282.78;5054297;28;20024;-50
2023/07/18 03:35:32;;;;;;;0.50;0.20;;;;;;;11.65;100.00;101275.19;5048755;28;20047;-50
2023/07/18 03:37:58;;;;;;;0.28;0.10;;;;;;;11.60;100.00;101282.03;5048194;28;20033;-51
2023/07/18 03:40:23;;;;;;;0.82;0.10;;;;;;;11.54;100.00;101289.72;5049529;28;20410;-50
2023/07/18 03:42:48;;;;;;;1.25;0.43;;;;;;;11.54;100.00;101289.72;5047700;28;20368;-50
2023/07/18 03:45:16;;;;;;;0.35;0.20;;;;;;;11.60;100.00;101290.00;5055344;28;20040;-51
2023/07/18 03:47:42;;;;;;;1.30;0.30;;;;;;;11.52;100.00;101294.38;5042775;28;20041;-50
2023/07/18 03:50:12;;;;;;;1.38;0.28;;;;;;;11.44;100.00;101289.13;5049708;28;20037;-53
2023/07/18 03:52:38;;;;;;;1.00;0.10;;;;;;;11.48;100.00;101290.41;5051660;28;20091;-50
2023/07/18 03:55:04;;;;;;;1.02;0.20;;;;;;;11.47;100.00;101287.94;5041354;28;20036;-49
2023/07/18 03:57:31;;;;;;;0.00;0.00;;;;;;;11.49;100.00;101291.25;5046046;28;20025;-48
2023/07/18 03:59:56;;;;;;;1.13;0.08;;;;;;;11.54;100.00;101286.25;5039103;28;20100;-53
2023/07/18 04:02:22;;;;;;;0.00;0.00;;;;;;;11.57;100.00;101286.69;5060162;28;20576;-51
2023/07/18 04:04:47;;;;;;;5.47;0.65;;;;;;;11.55;100.00;101280.72;5046955;28;20034;-54
2023/07/18 04:07:12;;;;;;;1.25;0.00;;;;;;;11.49;100.00;101278.81;5051406;28;20046;-48
2023/07/18 04:09:38;;;;;;;3.22;0.10;;;;;;;11.39;100.00;101280.88;5045931;28;20025;-54
2023/07/18 04:12:04;;;;;;;0.40;0.05;;;;;;;11.28;100.00;101283.91;5048859;28;20567;-50
2023/07/18 04:14:29;;;;;;;0.57;0.05;;;;;;;11.27;100.00;101277.78;5047756;28;20040;-50
2023/07/18 04:16:54;;;;;;;0.75;0.00;;;;;;;11.26;100.00;101276.13;5054133;28;20855;-52
2023/07/18 04:19:19;;;;;;;0.30;0.00;;;;;;;11.23;100.00;101270.34;5053680;28;20847;-48
2023/07/18 04:21:45;;;;;;;2.83;0.20;;;;;;;11.19;100.00;101269.88;5048884;28;20471;-49
2023/07/18 04:24:10;;;;;;;2.70;0.10;;;;;;;11.12;100.00;101266.25;5052662;28;20044;-50
2023/07/18 04:26:36;;;;;;;0.28;0.00;;;;;;;11.03;100.00;101262.03;5056909;28;20085;-52
2023/07/18 04:29:04;;;;;;;0.30;0.10;;;;;;;11.00;100.00;101273.81;5055467;28;20285;-51
2023/07/18 04:31:29;;;;;;;3.50;0.85;;;;;;;11.01;100.00;101271.97;5055713;28;20060;-53
2023/07/18 04:33:54;;;;;;;1.23;0.15;;;;;;;10.95;100.00;101280.66;5045797;28;21168;-50
2023/07/18 04:36:20;;;;;;;1.55;0.10;;;;;;;10.90;100.00;101281.16;5051284;28;20036;-53
2023/07/18 04:38:45;;;;;;;2.95;0.10;;;;;;;10.85;100.00;101294.94;5042663;28;20524;-49
2023/07/18 04:41:10;;;;;;;6.93;1.65;;;;;;;10.98;100.00;101291.72;5054898;28;20036;-53
2023/07/18 04:43:36;;;;;;;1.85;0.20;;;;;;;10.77;100.00;101294.16;5051646;28;20085;-50
2023/07/18 04:46:04;;;;;;;0.40;0.28;;;;;;;10.68;100.00;101296.00;5056923;28;20040;-52
2023/07/18 04:48:29;;;;;;;0.15;0.10;;;;;;;11.07;100.00;101288.00;5050212;28;20393;-47
2023/07/18 04:51:00;;;;;;;3.88;0.00;;;;;;;11.21;100.00;101285.63;5041779;28;20032;-53
2023/07/18 04:53:27;;;;;;;3.15;0.10;;;;;;;11.15;100.00;101284.47;5049684;28;20055;-48
2023/07/18 04:55:55;;;;;;;1.08;0.22;;;;;;;11.30;100.00;101284.56;5053923;28;20574;-49
2023/07/18 04:58:20;;;;;;;6.03;0.43;;;;;;;11.36;100.00;101281.22;5043426;28;20033;-52
2023/07/18 05:00:46;;;;;;;2.50;0.20;;;;;;;11.47;100.00;101275.50;5054891;28;20125;-51
2023/07/18 05:03:11;;;;;;;0.88;0.10;;;;;;;11.55;100.00;101290.53;5052797;28;20194;-49
2023/07/18 05:05:36;;;;;;;1.17;0.00;;;;;;;11.57;100.00;101281.38;5049651;28;20432;-54
2023/07/18 05:08:03;;;;;;;4.25;0.10;;;;;;;11.67;100.00;101288.28;5047931;28;20047;-50
2023/07/18 05:10:29;;;;;;;0.63;0.50;;;;;;;11.76;100.00;101276.59;5047855;28;20044;-51
2023/07/18 05:12:55;;;;;;;1.70;0.43;;;;;;;11.86;100.00;101273.69;5053374;28;20032;-49
2023/07/18 05:15:21;;;;;;;2.45;0.47;;;;;;;11.98;100.00;101278.41;5048161;28;20041;-52
2023/07/18 05:17:47;;;;;;;1.35;0.22;;;;;;;12.06;100.00;101279.34;5043952;28;20048;-51
2023/07/18 05:20:13;;;;;;;1.73;0.88;;;;;;;12.05;100.00;101280.34;5053612;28;20040;-49
2023/07/18 05:22:43;;;;;;;0.30;0.00;;;;;;;11.98;100.00;101280.25;5037307;28;20026;-48
2023/07/18 05:25:10;;;;;;;0.10;0.03;;;;;;;11.85;100.00;101286.16;5059536;28;20030;-51
2023/07/18 05:27:36;;;;;;;0.82;0.10;;;;;;;12.21;100.00;101291.66;5049841;28;20040;-53
2023/07/18 05:30:04;;;;;;;0.63;0.20;;;;;;;12.36;100.00;101277.53;5042848;28;20112;-51
2023/07/18 05:32:29;;;;;;;1.65;0.68;;;;;;;12.51;100.00;101288.16;5051379;28;20064;-50
2023/07/18 05:34:55;;;;;;;3.80;0.80;;;;;;;12.55;100.00;101281.47;5059536;28;20129;-53
2023/07/18 05:37:21;;;;;;;1.85;0.17;;;;;;;12.55;100.00;101279.66;5048956;28;20068;-52
2023/07/18 05:39:47;;;;;;;1.63;0.35;;;;;;;12.63;100.00;101284.03;5033141;28;20056;-48
2023/07/18 05:42:12;;;;;;;0.38;0.00;;;;;;;12.70;100.00;101284.09;5048477;28;20036;-48
2023/07/18 05:44:37;;;;;;;2.17;0.98;;;;;;;12.70;100.00;101282.28;5040457;28;20120;-51
2023/07/18 05:47:04;;;;;;;1.38;0.08;;;;;;;12.57;100.00;101282.09;5043549;28;20077;-53
2023/07/18 05:49:29;;;;;;;0.35;0.17;;;;;;;12.87;100.00;101285.56;5038942;28;20061;-52
2023/07/18 05:51:54;;;;;;;1.20;0.10;;;;;;;12.94;100.00;101285.66;5047495;28;20127;-52
2023/07/18 05:54:19;;;;;;;3.72;0.10;;;;;;;12.92;100.00;101288.50;5033980;28;20064;-53
2023/07/18 05:56:46;;;;;;;1.08;0.08;;;;;;;12.95;100.00;101280.13;5041169;28;20051;-53
2023/07/18 05:59:11;;;;;;;0.43;0.10;;;;;;;13.03;100.00;101290.66;5048949;28;20710;-50
2023/07/18 06:01:37;;;;;;;0.95;0.15;;;;;;;13.18;100.00;101287.97;5040604;28;20032;-50
2023/07/18 06:04:03;;;;;;;1.30;0.17;;;;;;;13.36;100.00;101289.41;5053643;28;20511;-53
2023/07/18 06:06:30;;;;;;;0.65;0.03;;;;;;;13.45;100.00;101290.91;5051367;28;20165;-47
2023/07/18 06:08:55;;;;;;;1.50;0.15;;;;;;;13.61;100.00;101288.03;5055743;28;20037;-51
2023/07/18 06:11:21;;;;;;;1.33;0.00;;;;;;;13.73;100.00;101289.16;5046446;28;20033;-55
2023/07/18 06:13:48;;;;;;;0.77;0.05;;;;;;;13.84;100.00;101287.00;5044728;28;20437;-53
2023/07/18 06:16:14;;;;;;;1.05;0.20;;;;;;;13.96;100.00;101291.59;5054471;28;20040;-52
2023/07/18 06:18:41;;;;;;;5.38;0.40;;;;;;;14.03;100.00;101278.31;5046952;28;20397;-54
2023/07/18 06:21:07;;;;;;;0.35;0.35;;;;;;;14.05;100.00;101272.78;5050386;28;20046;-53
2023/07/18 06:23:32;;;;;;;1.45;0.20;;;;;;;14.11;100.00;101280.00;5061677;28;20052;-53
2023/07/18 06:25:57;;;;;;;2.47;0.10;;;;;;;14.19;100.00;101279.84;5046597;28;20029;-50
2023/07/18 06:28:23;;;;;;;1.45;0.08;;;;;;;14.17;100.00;101279.22;5060438;28;20044;-56
2023/07/18 06:30:54;;;;;;;0.70;0.55;;;;;;;14.17;100.00;101277.38;5051575;28;20063;-50
2023/07/18 06:33:19;;;;;;;2.20;0.20;;;;;;;14.29;100.00;101268.84;5048683;28;20504;-55
2023/07/18 06:35:51;;;;;;;1.20;0.22;;;;;;;14.40;100.00;101276.28;5057940;28;20278;-51
2023/07/18 06:38:17;;;;;;;6.05;0.30;;;;;;;14.56;100.00;101278.66;5051511;28;20119;-54
2023/07/18 06:40:45;;;;;;;7.97;0.40;;;;;;;14.67;100.00;101271.13;5049971;28;20111;-57
2023/07/18 06:43:11;;;;;;;2.63;0.20;;;;;;;14.79;100.00;101266.84;5052366;28;20113;-52
2023/07/18 06:45:37;;;;;;;5.22;0.00;;;;;;;14.91;100.00;101262.56;5045352;28;20282;-55
2023/07/18 06:48:02;;;;;;;1.33;0.15;;;;;;;15.08;100.00;101257.72;5056265;28;20032;-52
2023/07/18 06:50:29;;;;;;;1.90;0.10;;;;;;;15.29;100.00;101251.38;5044247;28;20513;-53
2023/07/18 06:52:54;;;;;;;2.35;0.47;;;;;;;15.45;100.00;101253.66;5041206;28;20036;-55
2023/07/18 06:55:20;;;;;;;3.10;0.47;;;;;;;15.53;100.00;101252.63;5051630;28;20052;-50
2023/07/18 06:57:45;;;;;;;3.10;0.32;;;;;;;15.66;100.00;101251.81;5048035;28;20060;-52
2023/07/18 07:00:12;;;;;;;2.45;0.28;;;;;;;15.82;100.00;101242.56;5050767;28;20037;-55
2023/07/18 07:02:38;;;;;;;1.58;0.45;;;;;;;15.96;100.00;101238.06;5050164;28;20071;-53
2023/07/18 07:05:04;;;;;;;5.78;0.73;;;;;;;16.03;100.00;101236.16;5043394;28;20486;-55
2023/07/18 07:07:29;;;;;;;5.65;0.15;;;;;;;16.11;100.00;101230.63;5045489;28;20021;-54
2023/07/18 07:09:55;;;;;;;0.68;0.10;;;;;;;16.13;100.00;101232.06;5050077;28;20547;-53
2023/07/18 07:12:20;;;;;;;2.63;0.63;;;;;;;16.28;100.00;101236.31;5055470;28;20036;-50
2023/07/18 07:14:45;;;;;;;3.35;0.95;;;;;;;16.36;100.00;101220.84;5048520;28;20061;-53
2023/07/18 07:17:10;;;;;;;5.25;0.35;;;;;;;16.39;100.00;101222.28;5048834;28;20389;-52
2023/07/18 07:19:36;;;;;;;3.17;0.30;;;;;;;16.44;100.00;101227.81;5041908;28;20033;-57
2023/07/18 07:22:02;;;;;;;5.40;0.52;;;;;;;16.53;100.00;101217.72;5047981;28;20021;-56
2023/07/18 07:24:27;;;;;;;2.78;0.47;;;;;;;16.67;100.00;101215.78;5049713;28;20044;-51
2023/07/18 07:26:52;;;;;;;1.50;0.32;;;;;;;16.84;100.00;101216.16;5044811;28;20025;-54
2023/07/18 07:29:17;;;;;;;3.60;0.38;;;;;;;17.00;100.00;101210.28;5041289;28;20954;-55
2023/07/18 07:31:43;;;;;;;1.55;0.73;;;;;;;17.09;100.00;101209.00;5053197;28;20045;-51
2023/07/18 07:34:08;;;;;;;6.03;0.40;;;;;;;17.09;100.00;101206.31;5048279;28;20041;-53
2023/07/18 07:36:33;;;;;;;2.65;0.30;;;;;;;17.31;100.00;101214.00;5029138;28;20044;-52
2023/07/18 07:38:59;;;;;;;4.63;0.40;;;;;;;17.43;100.00;101201.53;5025131;28;20039;-55
2023/07/18 07:41:24;;;;;;;3.30;0.85;;;;;;;17.53;100.00;101201.88;5052338;28;20035;-52
2023/07/18 07:43:50;;;;;;;3.67;0.20;;;;;;;17.62;100.00;101186.31;5044911;28;20647;-53
2023/07/18 07:46:16;;;;;;;1.98;0.40;;;;;;;17.81;100.00;101184.50;5049695;28;20443;-51
2023/07/18 07:48:41;;;;;;;1.52;0.35;;;;;;;17.91;100.00;101184.00;5051401;28;20086;-51
2023/07/18 07:51:07;;;;;;;4.10;0.47;;;;;;;17.97;100.00;101183.94;5051251;28;20643;-54
2023/07/18 07:53:32;;;;;;;0.75;0.20;;;;;;;18.02;100.00;101172.53;5051431;28;20024;-55
2023/07/18 07:55:57;;;;;;;2.42;0.47;;;;;;;18.04;100.00;101170.44;5050616;28;20509;-51
2023/07/18 07:58:23;;;;;;;1.23;0.03;;;;;;;18.15;100.00;101167.00;5054072;28;20033;-51
2023/07/18 08:00:48;;;;;;;6.88;0.25;;;;;;;18.25;100.00;101161.09;5048146;28;20032;-52
2023/07/18 08:03:13;;;;;;;1.27;0.63;;;;;;;18.25;100.00;101161.09;5045732;28;20095;-54
2023/07/18 08:05:39;;;;;;;2.40;1.27;;;;;;;18.17;100.00;101153.34;5037206;28;20033;-54
2023/07/18 08:08:04;;;;;;;5.10;0.17;;;;;;;18.20;100.00;101144.84;5051537;28;20121;-49
2023/07/18 08:10:30;;;;;;;2.85;0.30;;;;;;;18.22;100.00;101140.91;5043155;28;20444;-47
2023/07/18 08:12:55;;;;;;;3.40;0.55;;;;;;;18.37;100.00;101145.88;5043325;28;20029;-52
2023/07/18 08:15:22;;;;;;;3.22;0.28;;;;;;;18.47;100.00;101134.59;5045321;28;20055;-55
2023/07/18 08:17:47;;;;;;;2.75;0.28;;;;;;;18.69;100.00;101133.06;5047357;28;20052;-49
2023/07/18 08:20:12;;;;;;;5.80;0.47;;;;;;;18.93;100.00;101125.91;5049096;28;20486;-49
2023/07/18 08:22:39;;;;;;;3.33;0.10;;;;;;;19.10;100.00;101128.75;5047670;28;20140;-51
2023/07/18 08:25:04;;;;;;;0.60;0.10;;;;;;;19.23;100.00;101116.94;5040625;28;20032;-54
2023/07/18 08:27:29;;;;;;;1.25;0.10;;;;;;;19.37;100.00;101123.72;5045045;28;20029;-53
2023/07/18 08:29:55;;;;;;;4.10;0.30;;;;;;;19.40;100.00;101117.06;5047112;28;20035;-54
2023/07/18 08:32:21;;;;;;;1.48;0.10;;;;;;;19.32;100.00;101123.59;5040135;28;20135;-53
2023/07/18 08:34:46;;;;;;;1.98;0.30;;;;;;;19.40;100.00;101122.44;5052047;28;20029;-50
2023/07/18 08:37:12;;;;;;;2.65;0.68;;;;;;;19.42;100.00;101112.28;5049500;28;20114;-51
2023/07/18 08:39:37;;;;;;;2.13;0.10;;;;;;;19.63;100.00;101118.91;5041515;28;20037;-50
2023/07/18 08:42:06;;;;;;;2.10;0.10;;;;;;;19.61;100.00;101110.25;5036639;28;20041;-50
2023/07/18 08:44:34;;;;;;;3.53;0.20;;;;;;;19.73;100.00;101115.66;5041535;28;20032;-54
2023/07/18 08:47:02;;;;;;;4.63;0.20;;;;;;;19.92;100.00;101116.31;5049552;28;20032;-50
2023/07/18 08:49:30;;;;;;;1.27;0.50;;;;;;;20.04;100.00;101115.25;5045168;28;20025;-51
2023/07/18 08:51:56;;;;;;;1.30;0.13;;;;;;;20.04;100.00;101123.31;5049554;28;20081;-54
2023/07/18 08:54:21;;;;;;;3.13;0.10;;;;;;;19.99;100.00;101111.63;5049240;28;20024;-56
2023/07/18 08:56:47;;;;;;;1.50;0.10;;;;;;;20.06;100.00;101112.31;5037859;28;20493;-53
2023/07/18 08:59:13;;;;;;;1.25;0.10;;;;;;;20.20;100.00;101108.28;5043994;28;20044;-52
2023/07/18 09:01:48;;;;;;;3.25;0.47;;;;;;;20.13;100.00;101096.00;5042438;28;20048;-52
2023/07/18 09:04:14;;;;;;;1.52;0.17;;;;;;;20.20;100.00;101089.44;5048859;28;20044;-48
2023/07/18 09:06:47;;;;;;;0.17;0.08;;;;;;;20.46;100.00;101093.41;5041366;28;20036;-51
2023/07/18 09:09:21;;;;;;;2.45;0.50;;;;;;;20.76;100.00;101099.63;5041033;28;20147;-47
2023/07/18 09:12:03;;;;;;;2.13;0.22;;;;;;;20.97;100.00;101100.78;5049568;28;20036;-55
2023/07/18 09:14:30;;;;;;;2.13;0.00;;;;;;;20.90;100.00;101096.34;5045843;28;20036;-52
2023/07/18 09:16:58;;;;;;;0.40;0.35;;;;;;;20.93;100.00;101103.13;5048472;28;20040;-53
2023/07/18 09:19:46;;;;;;;0.13;0.00;;;;;;;20.96;100.00;101097.28;5049821;28;20029;-50
2023/07/18 09:22:16;;;;;;;0.70;0.10;;;;;;;21.07;100.00;101085.59;5058908;28;20037;-52
2023/07/18 09:24:42;;;;;;;1.50;0.20;;;;;;;21.13;100.00;101083.78;5059123;28;20028;-53
2023/07/18 09:27:18;;;;;;;2.03;0.50;;;;;;;21.06;100.00;101088.50;5048701;28;20040;-53
2023/07/18 09:29:47;;;;;;;2.72;0.55;;;;;;;21.34;100.00;101082.19;5040721;28;20028;-55
2023/07/18 09:32:20;;;;;;;3.78;0.10;;;;;;;21.24;100.00;101076.66;5040274;28;20377;-53
2023/07/18 09:34:57;;;;;;;1.25;0.15;;;;;;;21.24;100.00;101076.66;5054092;28;20031;-54
2023/07/18 09:37:23;;;;;;;3.00;0.20;;;;;;;21.37;100.00;101078.19;5051460;28;20040;-53
2023/07/18 09:39:49;;;;;;;2.53;0.57;;;;;;;21.38;100.00;101080.66;5048271;28;20033;-53
2023/07/18 09:42:17;;;;;;;2.40;1.45;;;;;;;21.29;100.00;101077.53;5049455;28;20531;-55
2023/07/18 09:44:48;;;;;;;2.65;0.45;;;;;;;21.35;100.00;101081.94;5062258;28;20504;-50
2023/07/18 09:47:14;;;;;;;1.20;0.10;;;;;;;21.35;100.00;101083.84;5048222;28;20040;-51
2023/07/18 09:49:42;;;;;;;1.48;0.08;;;;;;;21.34;100.00;101083.00;5039289;28;20037;-57
2023/07/18 09:52:09;;;;;;;2.38;0.15;;;;;;;21.34;100.00;101069.50;5046990;28;20481;-52
2023/07/18 09:54:34;;;;;;;3.75;0.30;;;;;;;21.33;100.00;101072.47;5039218;28;20126;-52
2023/07/18 09:57:03;;;;;;;0.40;0.00;;;;;;;21.41;100.00;101080.16;5048940;28;20032;-51
2023/07/18 09:59:29;;;;;;;0.85;0.10;;;;;;;21.54;100.00;101077.09;5029508;28;20260;-56
2023/07/18 10:01:56;;;;;;;2.63;0.57;;;;;;;21.65;100.00;101074.53;5049212;28;20128;-53
2023/07/18 10:04:21;;;;;;;1.63;0.10;;;;;;;21.75;100.00;101070.09;5056188;28;20441;-52
2023/07/18 10:06:49;;;;;;;2.58;0.03;;;;;;;21.52;100.00;101064.94;5055017;28;20072;-57
2023/07/18 10:09:16;;;;;;;1.88;0.32;;;;;;;21.39;100.00;101076.09;5043725;28;20393;-55
2023/07/18 10:12:03;;;;;;;3.65;0.10;;;;;;;21.50;100.00;101067.91;5046665;28;20060;-51
2023/07/18 10:14:49;;;;;;;1.13;0.15;;;;;;;21.76;100.00;101077.13;5061445;28;20025;-56
2023/07/18 10:17:31;;;;;;;1.77;0.30;;;;;;;21.84;100.00;101072.34;5056663;28;20036;-55
2023/07/18 10:19:57;;;;;;;0.52;0.00;;;;;;;22.50;100.00;101069.56;5059956;28;20040;-51
2023/07/18 10:22:30;;;;;;;2.28;0.10;;;;;;;22.94;100.00;101077.50;5045257;28;20390;-58
2023/07/18 10:24:59;;;;;;;0.90;0.50;;;;;;;23.16;100.00;101075.53;5052593;28;20036;-53
2023/07/18 10:27:36;;;;;;;1.92;0.20;;;;;;;23.50;100.00;101069.78;5044133;28;20048;-55
2023/07/18 10:30:05;;;;;;;0.63;0.10;;;;;;;23.95;100.00;101066.47;5053797;28;20021;-55
2023/07/18 10:32:32;;;;;;;0.70;0.00;;;;;;;24.26;100.00;101060.31;5043265;28;20067;-56
2023/07/18 10:34:58;;;;;;;1.35;0.00;;;;;;;24.08;97.09;101051.59;5051277;28;20024;-58
2023/07/18 10:37:26;;;;;;;1.98;0.20;;;;;;;23.75;96.29;101047.47;5055663;28;20043;-65
2023/07/18 10:39:53;;;;;;;0.43;0.00;;;;;;;23.76;99.43;101042.84;5054802;28;20033;-50
2023/07/18 10:42:21;;;;;;;3.83;0.00;;;;;;;23.85;96.17;101049.38;5048093;28;20029;-51
2023/07/18 10:44:48;;;;;;;0.65;0.00;;;;;;;23.96;99.63;101048.34;5056496;28;20036;-50
2023/07/18 10:47:18;;;;;;;0.30;0.20;;;;;;;24.07;97.15;101049.19;5042471;28;20132;-54
2023/07/18 10:49:45;;;;;;;3.20;0.10;;;;;;;24.19;98.44;101041.63;5039415;28;20478;-57
2023/07/18 10:52:12;;;;;;;1.85;0.20;;;;;;;24.16;97.70;101050.25;5052787;28;20051;-61
2023/07/18 10:54:50;;;;;;;1.15;0.47;;;;;;;24.05;96.44;101051.34;5054566;28;20032;-54
2023/07/18 10:57:16;;;;;;;0.65;0.00;;;;;;;24.01;95.03;101048.34;5055347;28;20033;-59
2023/07/18 10:59:45;;;;;;;0.32;0.00;;;;;;;23.81;96.84;101051.81;5052979;28;20039;-51
2023/07/18 11:02:12;;;;;;;0.55;0.00;;;;;;;23.82;94.02;101047.19;5047809;28;20410;-56
2023/07/18 11:04:37;;;;;;;0.95;0.05;;;;;;;23.74;94.02;101051.22;5059347;28;20056;-65
2023/07/18 11:07:03;;;;;;;0.38;0.10;;;;;;;23.59;95.50;101043.81;5049566;28;20085;-54
2023/07/18 11:09:28;;;;;;;3.08;0.00;;;;;;;23.70;93.73;101031.97;5041247;28;20060;-56
2023/07/18 11:11:54;;;;;;;2.65;0.20;;;;;;;23.90;96.12;101030.44;5047547;28;20037;-53
2023/07/18 11:14:20;;;;;;;1.20;0.00;;;;;;;24.00;94.36;101033.16;5052880;28;20110;-51